sensor_id;sensor_type;location;lat;lon;timestamp;pressure;altitude;pressure_sealevel;temperature
77385;BMP280;66444;49.680;18.538;2023-03-14T00:04:22;95845.94034400267;;;13.009427002863958
77385;BMP280;66444;49.680;18.538;2023-03-14T00:09:27;95807.06555259417;;;12.999258358776569
77385;BMP280;66444;49.680;18.538;2023-03-14T00:14:32;95810.09494600793;;;13.019595623668284
77385;BMP280;66444;49.680;18.538;2023-03-14T00:19:37;95775.76284296761;;;13.03993279542774
77385;BMP280;66444;49.680;18.538;2023-03-14T00:24:42;95814.74450915073;;;12.943330400111154
77385;BMP280;66444;49.680;18.538;2023-03-14T00:29:47;95764.36961484634;;;12.999258358776569
77385;BMP280;66444;49.680;18.538;2023-03-14T00:34:52;95749.79326628748;;;13.08060685954988
77385;BMP280;66444;49.680;18.538;2023-03-14T00:39:57;95734.9358850138;;;13.070438378443942
77385;BMP280;66444;49.680;18.538;2023-03-14T00:45:02;95741.97690278871;;;13.243299390748144
77385;BMP280;66444;49.680;18.538;2023-03-14T00:50:08;95727.38357094764;;;13.324643421173096
77385;BMP280;66444;49.680;18.538;2023-03-14T00:55:14;95710.37147505971;;;13.497494538174942
77385;BMP280;66444;49.680;18.538;2023-03-14T01:00:19;95672.88070968822;;;13.568666571751237
77385;BMP280;66444;49.680;18.538;2023-03-14T01:05:24;95672.07284899951;;;13.599168522609398
77385;BMP280;66444;49.680;18.538;2023-03-14T01:10:30;95665.00459191603;;;13.731341221556068
77385;BMP280;66444;49.680;18.538;2023-03-14T01:15:35;95661.7595570244;;;13.853343297354877
77385;BMP280;66444;49.680;18.538;2023-03-14T01:20:41;95680.86978209339;;;13.838093221234157
77385;BMP280;66444;49.680;18.538;2023-03-14T01:25:46;95598.56444966933;;;13.751675133686513
77385;BMP280;66444;49.680;18.538;2023-03-14T01:30:51;95629.22639793895;;;13.670338926371187
77385;BMP280;66444;49.680;18.538;2023-03-14T01:35:56;95617.84256004164;;;13.62967026391998
77385;BMP280;66444;49.680;18.538;2023-03-14T01:41:01;95651.40648140495;;;13.639837464457377
77385;BMP280;66444;49.680;18.538;2023-03-14T01:46:14;95598.90867725963;;;13.538164411345496
77385;BMP280;66444;49.680;18.538;2023-03-14T01:51:38;95599.93595372656;;;13.365314877592027
77385;BMP280;66444;49.680;18.538;2023-03-14T01:56:51;95572.48194764639;;;13.360230965912342
77385;BMP280;66444;49.680;18.538;2023-03-14T02:02:00;95587.63765750779;;;13.426321363728494
77385;BMP280;66444;49.680;18.538;2023-03-14T02:07:10;95599.2334970641;;;13.324643421173096
77385;BMP280;66444;49.680;18.538;2023-03-14T02:12:19;95584.83136900957;;;13.263635538052768
77385;BMP280;66444;49.680;18.538;2023-03-14T02:17:26;95587.044209101;;;13.314475498860702
77385;BMP280;66444;49.680;18.538;2023-03-14T02:22:31;95559.64689890076;;;13.273803576780484
77385;BMP280;66444;49.680;18.538;2023-03-14T02:27:37;95581.10733535317;;;13.202626816742121
77385;BMP280;66444;49.680;18.538;2023-03-14T02:32:45;95581.10733535317;;;13.202626816742121
77385;BMP280;66444;49.680;18.538;2023-03-14T02:37:53;95622.2540073816;;;13.22804721915163
77385;BMP280;66444;49.680;18.538;2023-03-14T02:43:04;95704.60395859019;;;13.243299390748144
77385;BMP280;66444;49.680;18.538;2023-03-14T02:48:12;95773.21296083169;;;13.273803576780484
77385;BMP280;66444;49.680;18.538;2023-03-14T02:53:21;95765.08820995757;;;13.03993279542774
77385;BMP280;66444;49.680;18.538;2023-03-14T02:58:29;95775.11740183026;;;12.928077198239043
77385;BMP280;66444;49.680;18.538;2023-03-14T03:03:35;95755.50244888235;;;12.724696167418733
77385;BMP280;66444;49.680;18.538;2023-03-14T03:08:40;95740.22014719668;;;12.765373118640856
77385;BMP280;66444;49.680;18.538;2023-03-14T03:13:46;95728.75669172703;;;12.79588058758527
77385;BMP280;66444;49.680;18.538;2023-03-14T03:18:51;95726.44885665558;;;12.81621878379956
77385;BMP280;66444;49.680;18.538;2023-03-14T03:23:56;95726.52282747655;;;12.745034689595922
77385;BMP280;66444;49.680;18.538;2023-03-14T03:29:01;95742.59688470441;;;12.673849454522133
77385;BMP280;66444;49.680;18.538;2023-03-14T03:34:06;95768.60636279968;;;12.561984637239949
77385;BMP280;66444;49.680;18.538;2023-03-14T03:39:12;95715.63636641743;;;12.582323904475198
77385;BMP280;66444;49.680;18.538;2023-03-14T03:44:17;95704.74456661505;;;12.419607158889994
77385;BMP280;66444;49.680;18.538;2023-03-14T03:49:22;95666.83338439104;;;12.236543695488944
77385;BMP280;66444;49.680;18.538;2023-03-14T03:54:27;95703.38762243051;;;12.231458491599188
77385;BMP280;66444;49.680;18.538;2023-03-14T03:59:32;95710.26178913875;;;12.20603238483891
77385;BMP280;66444;49.680;18.538;2023-03-14T04:04:38;95746.05678220908;;;12.195861901389435
77385;BMP280;66444;49.680;18.538;2023-03-14T04:09:43;95743.78412294661;;;12.180606132559479
77385;BMP280;66444;49.680;18.538;2023-03-14T04:14:48;95747.62509178926;;;12.134838511748239
77385;BMP280;66444;49.680;18.538;2023-03-14T04:19:54;95706.24900045345;;;11.982276370562612
77385;BMP280;66444;49.680;18.538;2023-03-14T04:24:59;95734.0380298714;;;11.972105374885723
77385;BMP280;66444;49.680;18.538;2023-03-14T04:30:04;95733.35108322877;;;11.860222885757684
77385;BMP280;66444;49.680;18.538;2023-03-14T04:35:10;95734.95363512798;;;11.727994493721052
77385;BMP280;66444;49.680;18.538;2023-03-14T04:40:16;95732.00007777648;;;11.565246455697343
77385;BMP280;66444;49.680;18.538;2023-03-14T04:45:22;95720.61197727501;;;11.52455851486884
77385;BMP280;66444;49.680;18.538;2023-03-14T04:50:27;95758.6552552327;;;11.494042314775289
77385;BMP280;66444;49.680;18.538;2023-03-14T04:55:33;95750.35804959893;;;11.331285708583891
77385;BMP280;66444;49.680;18.538;2023-03-14T05:00:36;95723.77549372667;;;11.260077819088474
77385;BMP280;66444;49.680;18.538;2023-03-14T05:05:40;95730.64093417933;;;11.199041577195748
77385;BMP280;66444;49.680;18.538;2023-03-14T05:10:43;95760.30392329633;;;11.148177402000874
77385;BMP280;66444;49.680;18.538;2023-03-14T05:15:47;95758.03823020168;;;11.09731264472939
77385;BMP280;66444;49.680;18.538;2023-03-14T05:20:51;95756.54805885207;;;10.980321494024247
77385;BMP280;66444;49.680;18.538;2023-03-14T05:25:54;95715.53942451811;;;10.883674307912589
77385;BMP280;66444;49.680;18.538;2023-03-14T05:30:58;95716.3068453321;;;10.853153707319871
77385;BMP280;66444;49.680;18.538;2023-03-14T05:36:02;95683.63910323294;;;10.848066920181736
77385;BMP280;66444;49.680;18.538;2023-03-14T05:41:06;95686.68243293311;;;10.832806523842738
77385;BMP280;66444;49.680;18.538;2023-03-14T05:46:10;95670.72833036087;;;10.832806523842738
77385;BMP280;66444;49.680;18.538;2023-03-14T05:51:13;95672.99140060469;;;10.883674307912589
77385;BMP280;66444;49.680;18.538;2023-03-14T05:56:17;95660.81299553998;;;10.944714880455285
77385;BMP280;66444;49.680;18.538;2023-03-14T06:01:21;95670.68003129304;;;10.975234852405265
77385;BMP280;66444;49.680;18.538;2023-03-14T06:06:25;95666.1050074671;;;11.01592782237567
77385;BMP280;66444;49.680;18.538;2023-03-14T06:11:28;95664.56016345635;;;11.076966578839347
77385;BMP280;66444;49.680;18.538;2023-03-14T06:16:32;95688.08606712984;;;11.163436715677381
77385;BMP280;66444;49.680;18.538;2023-03-14T06:21:36;95698.34164536535;;;11.178695976966992
77385;BMP280;66444;49.680;18.538;2023-03-14T06:26:39;95679.70205333711;;;11.214300716249273
77385;BMP280;66444;49.680;18.538;2023-03-14T06:31:43;95682.7169876398;;;11.270250444579869
77385;BMP280;66444;49.680;18.538;2023-03-14T06:36:46;95681.92441654681;;;11.336371942749247
77385;BMP280;66444;49.680;18.538;2023-03-14T06:41:50;95657.50283296817;;;11.494042314775289
77385;BMP280;66444;49.680;18.538;2023-03-14T06:46:54;95637.67554758953;;;11.575418382696807
77385;BMP280;66444;49.680;18.538;2023-03-14T06:51:58;95636.84394144705;;;11.677136372122913
77385;BMP280;66444;49.680;18.538;2023-03-14T06:57:02;95627.6537936176;;;11.758509087283164
77385;BMP280;66444;49.680;18.538;2023-03-14T07:02:07;95613.07192144661;;;11.91107891188003
77385;BMP280;66444;49.680;18.538;2023-03-14T07:07:13;95648.3682539048;;;12.02296012043953
77385;BMP280;66444;49.680;18.538;2023-03-14T07:12:17;95655.57384358495;;;12.053472688375042
77385;BMP280;66444;49.680;18.538;2023-03-14T07:17:20;95657.08767424106;;;12.063643497787416
77385;BMP280;66444;49.680;18.538;2023-03-14T07:22:24;95669.19858544767;;;12.1450091348961
77385;BMP280;66444;49.680;18.538;2023-03-14T07:27:28;95669.86077341212;;;12.256884452840314
77385;BMP280;66444;49.680;18.538;2023-03-14T07:32:32;95685.85185926832;;;12.256884452840314
77385;BMP280;66444;49.680;18.538;2023-03-14T07:37:36;95676.76814481203;;;12.195861901389435
77385;BMP280;66444;49.680;18.538;2023-03-14T07:42:40;95671.43831830361;;;12.195861901389435
77385;BMP280;66444;49.680;18.538;2023-03-14T07:47:44;95659.98963122521;;;12.226373281888664
77385;BMP280;66444;49.680;18.538;2023-03-14T07:52:47;95667.98473945344;;;12.226373281888664
77385;BMP280;66444;49.680;18.538;2023-03-14T07:57:52;95659.20009857196;;;12.256884452840314
77385;BMP280;66444;49.680;18.538;2023-03-14T08:02:56;95671.27469835847;;;12.373842000262812
77385;BMP280;66444;49.680;18.538;2023-03-14T08:07:59;95687.0964246988;;;12.551814968697727
77385;BMP280;66444;49.680;18.538;2023-03-14T08:13:03;95692.20660927574;;;12.765373118640856
77385;BMP280;66444;49.680;18.538;2023-03-14T08:18:06;95702.71943436415;;;12.907739514252171
77385;BMP280;66444;49.680;18.538;2023-03-14T08:23:12;95693.3921502833;;;13.060269874054939
77385;BMP280;66444;49.680;18.538;2023-03-14T08:28:16;95687.87685163331;;;13.202626816742121
77385;BMP280;66444;49.680;18.538;2023-03-14T08:33:21;95696.95071206252;;;13.263635538052768
77385;BMP280;66444;49.680;18.538;2023-03-14T08:38:24;95712.38193353437;;;13.421237521898002
77385;BMP280;66444;49.680;18.538;2023-03-14T08:43:28;95731.54203718582;;;13.639837464457377
77385;BMP280;66444;49.680;18.538;2023-03-14T08:48:32;95737.63328385071;;;13.914343077968805
77385;BMP280;66444;49.680;18.538;2023-03-14T08:53:36;95737.709191153;;;14.112586576212198
77385;BMP280;66444;49.680;18.538;2023-03-14T08:58:40;95741.25728970201;;;14.28032415965572
77385;BMP280;66444;49.680;18.538;2023-03-14T09:03:44;95754.61694377927;;;14.514129608729855
77385;BMP280;66444;49.680;18.538;2023-03-14T09:08:48;95738.60242165811;;;14.910554177500307
77385;BMP280;66444;49.680;18.538;2023-03-14T09:13:52;95756.29810481712;;;15.24596269079484
77385;BMP280;66444;49.680;18.538;2023-03-14T09:18:56;95766.57008137503;;;15.459391270484776
77385;BMP280;66444;49.680;18.538;2023-03-14T09:24:00;95753.04687883252;;;15.693134600343182
77385;BMP280;66444;49.680;18.538;2023-03-14T09:29:04;95747.11507675883;;;15.94210851257667
77385;BMP280;66444;49.680;18.538;2023-03-14T09:34:07;95762.11347244635;;;16.079292247211562
77385;BMP280;66444;49.680;18.538;2023-03-14T09:39:11;95761.69396476356;;;16.094534622458742
77385;BMP280;66444;49.680;18.538;2023-03-14T09:44:16;95779.54393508469;;;15.997998694470152
77385;BMP280;66444;49.680;18.538;2023-03-14T09:49:30;95791.92287210294;;;15.774433741020038
77385;BMP280;66444;49.680;18.538;2023-03-14T09:54:37;95794.23312084645;;;15.591508579021319
77385;BMP280;66444;49.680;18.538;2023-03-14T09:59:46;95788.0769271259;;;15.423820553580299
77385;BMP280;66444;49.680;18.538;2023-03-14T10:04:52;95778.40735619978;;;15.286616545217111
77385;BMP280;66444;49.680;18.538;2023-03-14T10:09:57;95788.85073474256;;;15.03252384327352
77385;BMP280;66444;49.680;18.538;2023-03-14T10:15:02;95792.13768521628;;;14.910554177500307
77385;BMP280;66444;49.680;18.538;2023-03-14T10:20:25;95786.22306048789;;;14.798745705233888
77385;BMP280;66444;49.680;18.538;2023-03-14T10:25:32;95812.2925437958;;;14.758087380463257
77385;BMP280;66444;49.680;18.538;2023-03-14T10:30:39;95794.72444100169;;;14.74792274106294
77385;BMP280;66444;49.680;18.538;2023-03-14T10:35:46;95799.13137320051;;;14.849568087328226
77385;BMP280;66444;49.680;18.538;2023-03-14T10:40:56;95802.79046218618;;;15.144326424924657
77385;BMP280;66444;49.680;18.538;2023-03-14T10:46:05;95795.84512742284;;;15.367923136474564
77385;BMP280;66444;49.680;18.538;2023-03-14T10:51:18;95808.80165554499;;;15.58134584883228
77385;BMP280;66444;49.680;18.538;2023-03-14T10:56:33;95803.47736218295;;;15.7439467378892
77385;BMP280;66444;49.680;18.538;2023-03-14T11:01:40;95786.415725758;;;16.008160470053554
77385;BMP280;66444;49.680;18.538;2023-03-14T11:06:52;95799.98543176347;;;15.937027552025393
77385;BMP280;66444;49.680;18.538;2023-03-14T11:12:08;95798.34691568087;;;15.63724057674408
77385;BMP280;66444;49.680;18.538;2023-03-14T11:17:34;95797.01371556512;;;15.357759894058109
77385;BMP280;66444;49.680;18.538;2023-03-14T11:22:46;95799.4929948202;;;15.06809769757092
77385;BMP280;66444;49.680;18.538;2023-03-14T11:27:59;95810.18358046535;;;14.86989687718451
77385;BMP280;66444;49.680;18.538;2023-03-14T11:33:14;95796.10906727803;;;14.829239204339682
77385;BMP280;66444;49.680;18.538;2023-03-14T11:38:23;95821.60667822881;;;14.676769613334908
77385;BMP280;66444;49.680;18.538;2023-03-14T11:43:33;95814.33948487403;;;14.448055404284968
77385;BMP280;66444;49.680;18.538;2023-03-14T11:48:42;95800.1411260445;;;14.24474398982711
77385;BMP280;66444;49.680;18.538;2023-03-14T11:53:55;95802.6248368308;;;14.1176696264185
77385;BMP280;66444;49.680;18.538;2023-03-14T11:59:08;95789.06389495982;;;13.990591625031083
77385;BMP280;66444;49.680;18.538;2023-03-14T12:04:21;95788.50955901016;;;13.84317658576183
77385;BMP280;66444;49.680;18.538;2023-03-14T12:09:53;95787.18978104094;;;13.690673117898404
77385;BMP280;66444;49.680;18.538;2023-03-14T12:14:59;95773.57228697174;;;13.599168522609398
77385;BMP280;66444;49.680;18.538;2023-03-14T12:20:15;95771.43980727455;;;13.47715946189128
77385;BMP280;66444;49.680;18.538;2023-03-14T12:25:22;95765.8316552788;;;13.385650466103106
77385;BMP280;66444;49.680;18.538;2023-03-14T12:30:30;95771.69935277513;;;13.263635538052768
77385;BMP280;66444;49.680;18.538;2023-03-14T12:35:36;95777.1202057167;;;13.192458615032956
77385;BMP280;66444;49.680;18.538;2023-03-14T12:40:46;95767.24038486452;;;13.161953870207071
77385;BMP280;66444;49.680;18.538;2023-03-14T12:46:06;95771.7815599779;;;13.192458615032956
77385;BMP280;66444;49.680;18.538;2023-03-14T12:51:18;95760.66355577683;;;13.243299390748144
77385;BMP280;66444;49.680;18.538;2023-03-14T12:56:25;95777.1202057167;;;13.192458615032956
77385;BMP280;66444;49.680;18.538;2023-03-14T13:01:35;95770.78477038405;;;13.060269874054939
77385;BMP280;66444;49.680;18.538;2023-03-14T13:06:51;95776.6316805334;;;12.938246005307883
77385;BMP280;66444;49.680;18.538;2023-03-14T13:12:01;95794.22574681959;;;12.87723281364888
77385;BMP280;66444;49.680;18.538;2023-03-14T13:17:12;95796.96138800507;;;12.806049697333947
77385;BMP280;66444;49.680;18.538;2023-03-14T13:22:20;95813.15199935615;;;12.592493503168225
77385;BMP280;66444;49.680;18.538;2023-03-14T13:27:29;95815.2998848084;;;12.2670547965914
77385;BMP280;66444;49.680;18.538;2023-03-14T13:32:35;95819.24725061705;;;12.043301855679601
77385;BMP280;66444;49.680;18.538;2023-03-14T13:37:45;95823.96216012671;;;11.753423336241394
77385;BMP280;66444;49.680;18.538;2023-03-14T13:42:49;95821.78397320733;;;11.488956261053682
77385;BMP280;66444;49.680;18.538;2023-03-14T13:48:04;95828.67824712054;;;11.321113222790881
77385;BMP280;66444;49.680;18.538;2023-03-14T13:53:10;95818.42677460854;;;11.270250444579869
77385;BMP280;66444;49.680;18.538;2023-03-14T13:58:23;95825.27546206374;;;11.244818837195634
77385;BMP280;66444;49.680;18.538;2023-03-14T14:03:30;95820.31970173134;;;11.30076818135567
77385;BMP280;66444;49.680;18.538;2023-03-14T14:08:36;95817.21879901359;;;11.494042314775289
77385;BMP280;66444;49.680;18.538;2023-03-14T14:13:44;95797.31319939192;;;11.789023471297696
77385;BMP280;66444;49.680;18.538;2023-03-14T14:18:48;95800.22826457115;;;12.02296012043953
77385;BMP280;66444;49.680;18.538;2023-03-14T14:23:54;95813.83078816764;;;12.185691394656896
77385;BMP280;66444;49.680;18.538;2023-03-14T14:28:59;95825.76261332675;;;11.961934355925768
77385;BMP280;66444;49.680;18.538;2023-03-14T14:34:17;95825.86665355225;;;11.748337579378859
77385;BMP280;66444;49.680;18.538;2023-03-14T14:39:23;95811.06586700388;;;11.666964677954093
77385;BMP280;66444;49.680;18.538;2023-03-14T14:44:29;95810.32234960454;;;11.626277668448164
77385;BMP280;66444;49.680;18.538;2023-03-14T14:49:37;95811.85419484533;;;11.600848098332062
77385;BMP280;66444;49.680;18.538;2023-03-14T14:54:43;95812.61285195786;;;11.605934023996815
77385;BMP280;66444;49.680;18.538;2023-03-14T14:59:49;95810.35088828873;;;11.555074505414813
77385;BMP280;66444;49.680;18.538;2023-03-14T15:04:54;95802.76413428887;;;11.504214404756203
77385;BMP280;66444;49.680;18.538;2023-03-14T15:09:58;95810.4015524263;;;11.41266475673765
77385;BMP280;66444;49.680;18.538;2023-03-14T15:15:03;95804.35271132641;;;11.30076818135567
77385;BMP280;66444;49.680;18.538;2023-03-14T15:20:10;95798.28186398916;;;11.260077819088474
77385;BMP280;66444;49.680;18.538;2023-03-14T15:25:16;95784.97701441117;;;11.260077819088474
77385;BMP280;66444;49.680;18.538;2023-03-14T15:30:20;95787.62708272996;;;11.295681906444951
77385;BMP280;66444;49.680;18.538;2023-03-14T15:35:24;95785.31531173905;;;11.387233964260668
77385;BMP280;66444;49.680;18.538;2023-03-14T15:40:29;95776.15857289534;;;11.468611987959594
77385;BMP280;66444;49.680;18.538;2023-03-14T15:45:34;95751.0061266722;;;11.585590286413208
77385;BMP280;66444;49.680;18.538;2023-03-14T15:50:39;95749.45363402697;;;11.646621219767258
77385;BMP280;66444;49.680;18.538;2023-03-14T15:55:43;95731.87991665989;;;11.778852033242583
77385;BMP280;66444;49.680;18.538;2023-03-14T16:00:47;95740.78050878436;;;12.124667865317315
77385;BMP280;66444;49.680;18.538;2023-03-14T16:05:51;95722.84483556142;;;12.612832630705089
77385;BMP280;66444;49.680;18.538;2023-03-14T16:10:57;95722.15606502187;;;12.53656042222865
77385;BMP280;66444;49.680;18.538;2023-03-14T16:16:03;95711.59048822198;;;12.429777130112052
77385;BMP280;66444;49.680;18.538;2023-03-14T16:21:10;95749.81708584525;;;12.256884452840314
77385;BMP280;66444;49.680;18.538;2023-03-14T16:26:16;95760.53132256509;;;12.185691394656896
77385;BMP280;66444;49.680;18.538;2023-03-14T16:31:22;95765.9116928925;;;12.114497195603326
77385;BMP280;66444;49.680;18.538;2023-03-14T16:36:26;95778.91409840184;;;12.02296012043953
77385;BMP280;66444;49.680;18.538;2023-03-14T16:41:31;95778.17837827568;;;11.982276370562612
77385;BMP280;66444;49.680;18.538;2023-03-14T16:46:35;95767.95594667555;;;11.895822165161372
77385;BMP280;66444;49.680;18.538;2023-03-14T16:51:40;95773.67281879773;;;11.880565366055816
77385;BMP280;66444;49.680;18.538;2023-03-14T16:56:44;95776.74580876659;;;11.829708990687504
77385;BMP280;66444;49.680;18.538;2023-03-14T17:01:48;95769.5336606511;;;11.799194886069746
77385;BMP280;66444;49.680;18.538;2023-03-14T17:06:52;95785.55000114952;;;11.727994493721052
77385;BMP280;66444;49.680;18.538;2023-03-14T17:11:56;95773.01158477474;;;11.697479690611363
77385;BMP280;66444;49.680;18.538;2023-03-14T17:17:01;95760.86224543685;;;11.651707093045115
77385;BMP280;66444;49.680;18.538;2023-03-14T17:22:05;95757.88090971478;;;11.52455851486884
77385;BMP280;66444;49.680;18.538;2023-03-14T17:27:09;95761.74795895467;;;11.371975418925285
77385;BMP280;66444;49.680;18.538;2023-03-14T17:32:14;95768.25267800735;;;11.254991497611627
77385;BMP280;66444;49.680;18.538;2023-03-14T17:37:19;95765.6348041797;;;11.11257213302888
77385;BMP280;66444;49.680;18.538;2023-03-14T17:42:23;95787.70594184495;;;10.975234852405265
77385;BMP280;66444;49.680;18.538;2023-03-14T17:47:27;95799.11893584931;;;10.873500797664747
77385;BMP280;66444;49.680;18.538;2023-03-14T17:52:31;95796.08916833048;;;10.781938157696278
77385;BMP280;66444;49.680;18.538;2023-03-14T17:57:36;95799.51354834254;;;10.68019967917353
77385;BMP280;66444;49.680;18.538;2023-03-14T18:02:41;95811.28709458026;;;10.634416604228317
77385;BMP280;66444;49.680;18.538;2023-03-14T18:07:45;95830.2743096456;;;10.619155474472791
77385;BMP280;66444;49.680;18.538;2023-03-14T18:12:49;95844.70407730606;;;10.608981358865275
77385;BMP280;66444;49.680;18.538;2023-03-14T18:17:54;95862.16564240727;;;10.547936176275835
77385;BMP280;66444;49.680;18.538;2023-03-14T18:22:58;95862.91598963465;;;10.481802949262782
77385;BMP280;66444;49.680;18.538;2023-03-14T18:28:02;95886.44417573586;;;10.425843296526
77385;BMP280;66444;49.680;18.538;2023-03-14T18:33:06;95887.18837527695;;;10.359708253433928
77385;BMP280;66444;49.680;18.538;2023-03-14T18:38:10;95888.70040590323;;;10.334271436464041
77385;BMP280;66444;49.680;18.538;2023-03-14T18:43:14;95900.05780794691;;;10.232522713392973
77385;BMP280;66444;49.680;18.538;2023-03-14T18:48:18;95897.0152506737;;;10.212172689381987
77385;BMP280;66444;49.680;18.538;2023-03-14T18:53:23;95898.52494012697;;;10.186735028401017
77385;BMP280;66444;49.680;18.538;2023-03-14T18:58:27;95901.18136508492;;;10.186735028401017
77385;BMP280;66444;49.680;18.538;2023-03-14T19:03:32;95906.8683771835;;;10.171472361963243
77385;BMP280;66444;49.680;18.538;2023-03-14T19:08:38;95896.24293518589;;;10.171472361963243
77385;BMP280;66444;49.680;18.538;2023-03-14T19:13:43;95887.88776423824;;;10.151122058555483
77385;BMP280;66444;49.680;18.538;2023-03-14T19:18:47;95892.0531772325;;;10.125684048328548
77385;BMP280;66444;49.680;18.538;2023-03-14T19:23:51;95886.72852957946;;;10.090070589538664
77385;BMP280;66444;49.680;18.538;2023-03-14T19:28:56;95894.6965249393;;;10.090070589538664
77385;BMP280;66444;49.680;18.538;2023-03-14T19:34:02;95908.36383275474;;;10.110421172343194
77385;BMP280;66444;49.680;18.538;2023-03-14T19:39:06;95917.46643745799;;;10.10024589258246
77385;BMP280;66444;49.680;18.538;2023-03-14T19:44:10;95928.86628785673;;;10.140946871927008
77385;BMP280;66444;49.680;18.538;2023-03-14T19:49:15;95934.19313698783;;;10.176559923263266
77385;BMP280;66444;49.680;18.538;2023-03-14T19:54:20;95934.92498122834;;;10.110421172343194
77385;BMP280;66444;49.680;18.538;2023-03-14T19:59:24;95936.41594780167;;;10.049369144532829
77385;BMP280;66444;49.680;18.538;2023-03-14T20:04:28;95926.5687256157;;;10.090070589538664
77385;BMP280;66444;49.680;18.538;2023-03-14T20:09:33;95929.64125774396;;;10.181647478742525
77385;BMP280;66444;49.680;18.538;2023-03-14T20:14:37;95941.8863310873;;;10.476715737208725
77385;BMP280;66444;49.680;18.538;2023-03-14T20:19:41;95953.30754712745;;;10.588633057801053
77385;BMP280;66444;49.680;18.538;2023-03-14T20:24:46;95942.69045679276;;;10.659851704072207
77385;BMP280;66444;49.680;18.538;2023-03-14T20:29:54;95938.1407496453;;;10.700547561142594
77385;BMP280;66444;49.680;18.538;2023-03-14T20:34:59;95942.70406822245;;;10.731069209473208
77385;BMP280;66444;49.680;18.538;2023-03-14T20:40:05;95941.94954935474;;;10.761590648256242
77385;BMP280;66444;49.680;18.538;2023-03-14T20:45:10;95938.14694890931;;;10.736156130488961
77385;BMP280;66444;49.680;18.538;2023-03-14T20:50:15;95943.85364716774;;;10.792111877491697
77385;BMP280;66444;49.680;18.538;2023-03-14T20:55:19;95949.55489335755;;;10.812459247233345
77385;BMP280;66444;49.680;18.538;2023-03-14T21:00:25;95944.9970421818;;;10.817546075116843
77385;BMP280;66444;49.680;18.538;2023-03-14T21:05:32;95945.75754355556;;;10.822632897179574
77385;BMP280;66444;49.680;18.538;2023-03-14T21:10:39;95932.83463811276;;;10.771764414617792
77385;BMP280;66444;49.680;18.538;2023-03-14T21:15:45;95942.32057785487;;;10.710721467202529
77385;BMP280;66444;49.680;18.538;2023-03-14T21:20:52;95951.81806934993;;;10.7208953499794
77385;BMP280;66444;49.680;18.538;2023-03-14T21:25:59;95960.93175381262;;;10.710721467202529
77385;BMP280;66444;49.680;18.538;2023-03-14T21:31:06;95975.36255111003;;;10.700547561142594
77385;BMP280;66444;49.680;18.538;2023-03-14T21:36:14;95979.16690152649;;;10.725982282636688
77385;BMP280;66444;49.680;18.538;2023-03-14T21:41:21;95987.90434868707;;;10.731069209473208
77385;BMP280;66444;49.680;18.538;2023-03-14T21:46:27;95987.519355514;;;10.710721467202529
77385;BMP280;66444;49.680;18.538;2023-03-14T21:51:34;96003.47203369775;;;10.710721467202529
77385;BMP280;66444;49.680;18.538;2023-03-14T21:56:40;96028.53738307906;;;10.700547561142594
77385;BMP280;66444;49.680;18.538;2023-03-14T22:01:48;96025.50368684414;;;10.715808411501348
77385;BMP280;66444;49.680;18.538;2023-03-14T22:06:54;96033.85491997386;;;10.700547561142594